Latest Weather Observations for Mount Buller

IDV60801

Issued at 8:03 am EDT Sunday 19 November 2017 (issued every 30 minutes, with the page automatically refreshed every 10 minutes)

About weather observations | Map of weather stations | Latest weather observations for VIC | Other Formats
Station Details ID: 083024 Name: MOUNT BULLER Lat: -37.15 Lon: 146.44 Height: 1707.0 m
Data from the previous 72 hours. | See also: Recent months at Mount Buller
Date/Time
EDT
Temp
°C
App
Temp
°C
Dew
Point
°C
Rel
Hum
%
Delta-T
°C
Wind Press
QNH
hPa
Press
MSL
hPa
Rain since
9am
mm
Dir  Spd
km/h
Gust
km/h
Spd
kts
Gust
kts
19/08:00am 9.1 4.9 7.5 90 0.8 - 19 24 10 13 - - -
19/07:30am 8.7 4.9 7.6 93 0.6 - 17 20 9 11 - - -
19/07:00am 8.2 - 7.3 94 0.5 - - - - - - - -
19/06:30am 7.5 - 6.4 93 0.6 - - - - - - - -
19/06:00am 7.6 - 6.1 90 0.8 - - - - - - - -
19/05:30am 7.7 - 6.2 90 0.8 - - - - - - - -
19/05:00am 7.9 - 5.9 87 1.0 - - - - - - - -
19/04:30am 7.8 - 6.3 90 0.8 - - - - - - - -
19/04:00am 8.2 - 7.9 98 0.2 - - - - - - - -
19/03:30am 8.3 - 8.2 99 0.1 - - - - - - - -
19/03:00am 8.6 - 7.8 95 0.4 - - - - - - - 0.0
19/02:30am 8.6 - 8.0 96 0.3 - - - - - - - -
19/02:00am 8.7 - 8.1 96 0.3 - - - - - - - -
19/01:30am 9.0 - 8.7 98 0.2 - - - - - - - -
19/01:00am 9.1 - 8.8 98 0.2 - - - - - - - -
19/12:30am 8.8 - 8.4 97 0.2 - - - - - - - -
19/12:00am 9.0 - 8.6 97 0.2 - - - - - - - -
 
Date/Time
EDT
Temp
°C
App
Temp
°C
Dew
Point
°C
Rel
Hum
%
Delta-T
°C
Wind Press
QNH
hPa
Press
MSL
hPa
Rain since
9am
mm
Dir  Spd
km/h
Gust
km/h
Spd
kts
Gust
kts
18/11:30pm 9.1 - 8.8 98 0.2 - - - - - - - -
18/11:00pm 9.3 - 9.2 99 0.1 - - - - - - - -
18/10:30pm 9.2 - 9.1 99 0.1 - - - - - - - -
18/10:00pm 9.2 - 8.7 97 0.3 - - - - - - - -
18/09:30pm 9.2 - 8.1 93 0.6 - - - - - - - -
18/09:00pm 9.0 - 7.8 92 0.6 - - - - - - - 0.2
18/08:30pm 9.6 - 7.5 87 1.1 - - - - - - - -
18/08:00pm 9.7 - 7.6 87 1.1 - - - - - - - -
18/07:30pm 9.9 - 7.7 86 1.2 - - - - - - - -
18/07:00pm 10.1 - 7.9 86 1.2 - - - - - - - -
18/06:30pm 9.9 - 8.8 93 0.6 - - - - - - - -
18/06:00pm 10.8 - 9.1 89 0.9 - - - - - - - -
18/05:30pm 10.7 - 9.0 89 0.9 - - - - - - - -
18/05:00pm 10.2 - 7.8 85 1.3 - - - - - - - -
18/04:30pm 10.4 - 7.8 84 1.4 - - - - - - - -
18/04:00pm 10.8 - 8.4 85 1.3 - - - - - - - -
18/03:30pm 10.3 - 8.2 87 1.1 - - - - - - - -
18/03:00pm 10.4 - 8.0 85 1.3 - - - - - - - 5.0
18/02:30pm 8.9 - 7.5 91 0.7 - - - - - - - -
18/02:00pm 12.5 - 8.4 76 2.2 - - - - - - - -
18/01:30pm 12.4 - 9.4 82 1.7 - - - - - - - -
18/01:00pm 12.6 - 10.1 85 1.4 - - - - - - - -
18/12:30pm 11.1 - 8.5 84 1.4 - - - - - - - -
18/12:00pm 11.6 - 8.8 83 1.5 - - - - - - - -
18/11:30am 11.6 - 9.0 84 1.4 - - - - - - - -
18/11:00am 11.1 - 9.4 89 0.9 - - - - - - - -
18/10:30am 12.4 - 10.1 86 1.3 - - - - - - - -
18/10:00am 10.7 - 8.6 87 1.1 - - - - - - - -
18/09:30am 9.6 - 8.4 92 0.6 - - - - - - - -
18/09:00am 10.6 - 8.5 87 1.1 - - - - - - - 7.0
18/08:30am 9.5 - 8.3 92 0.6 - - - - - - - -
18/08:00am 8.2 - 8.1 99 0.1 - - - - - - - -
18/07:30am 8.3 - 8.2 99 0.1 - - - - - - - -
18/07:00am 8.0 - 7.9 99 0.1 - - - - - - - -
18/06:30am 7.9 - 7.6 98 0.2 - - - - - - - -
18/06:00am 8.1 - 7.3 95 0.4 - - - - - - - -
18/05:30am 8.1 - 7.0 93 0.6 - - - - - - - -
18/05:00am 8.2 - 6.7 90 0.8 - - - - - - - -
18/04:30am 8.4 - 6.4 87 1.0 - - - - - - - -
18/04:00am 8.5 - 6.3 86 1.1 - - - - - - - -
18/03:30am 8.6 - 6.2 85 1.2 - - - - - - - -
18/03:00am 7.9 - 6.5 91 0.7 - - - - - - - 0.0
18/02:30am 7.8 - 6.7 93 0.6 - - - - - - - -
18/02:00am 7.9 - 6.5 91 0.7 - - - - - - - -
18/01:30am 7.9 - 7.1 95 0.4 - - - - - - - -
18/01:00am 7.9 - 7.6 98 0.2 - - - - - - - -
18/12:30am 8.1 - 7.2 94 0.5 - - - - - - - -
18/12:00am 8.0 - 6.3 89 0.9 - - - - - - - -
 
Date/Time
EDT
Temp
°C
App
Temp
°C
Dew
Point
°C
Rel
Hum
%
Delta-T
°C
Wind Press
QNH
hPa
Press
MSL
hPa
Rain since
9am
mm
Dir  Spd
km/h
Gust
km/h
Spd
kts
Gust
kts
17/11:30pm 8.2 - 5.7 84 1.3 - - - - - - - -
17/11:00pm 9.2 - 4.2 71 2.4 - - - - - - - -
17/10:30pm 8.6 - 3.8 72 2.3 - - - - - - - -
17/10:00pm 8.2 - 4.8 79 1.7 - - - - - - - -
17/09:30pm 8.3 - 5.6 83 1.3 - - - - - - - -
17/09:00pm 8.4 - 6.2 86 1.1 - - - - - - - 2.0
17/08:30pm 8.3 - 6.4 88 1.0 - - - - - - - -
17/08:00pm 9.3 - 7.9 91 0.7 - - - - - - - -
17/07:30pm 8.7 - 6.7 87 1.0 - - - - - - - -
17/07:00pm 8.2 - 6.0 86 1.1 - - - - - - - -
17/06:30pm 7.2 - 5.8 91 0.7 - - - - - - - -
17/06:00pm 9.3 - 8.1 92 0.6 - - - - - - - -
17/05:30pm 8.3 - 7.2 93 0.6 - - - - - - - -
17/05:00pm 8.6 - 8.2 97 0.2 - - - - - - - -
17/04:30pm 8.8 - 8.7 99 0.1 - - - - - - - -
17/04:00pm 9.1 - 8.8 98 0.2 - - - - - - - -
17/03:30pm 9.7 - 9.6 99 0.1 - - - - - - - -
17/03:00pm 9.5 - 9.4 99 0.1 - - - - - - - 5.0
17/02:30pm 10.2 - 10.1 99 0.1 - - - - - - - -
17/02:00pm 9.5 - 9.4 99 0.1 - - - - - - - -
17/01:30pm 8.0 - 7.9 99 0.1 - - - - - - - -
17/01:00pm 8.5 - 8.4 99 0.1 - - - - - - - -
17/12:30pm 9.6 - 9.5 99 0.1 - - - - - - - -
17/12:00pm 8.7 - 8.6 99 0.1 - - - - - - - -
17/11:30am 8.6 - 8.5 99 0.1 - - - - - - - -
17/11:00am 8.1 - 8.0 99 0.1 - - - - - - - -
17/10:30am 8.1 - 8.0 99 0.1 - - - - - - - -
17/10:00am 8.7 - 8.6 99 0.1 - - - - - - - -
17/09:30am 8.1 - 8.0 99 0.1 - - - - - - - -
17/09:00am 8.6 - 8.5 99 0.1 - - - - - - - 20.0
17/08:30am 8.2 - 8.1 99 0.1 - - - - - - - -
17/08:00am 8.1 - 8.0 99 0.1 - - - - - - - -
17/07:30am 8.0 - 7.9 99 0.1 - - - - - - - -
17/07:00am 7.8 - 7.7 99 0.1 - - - - - - - -
17/06:30am 7.5 - 7.4 99 0.1 - - - - - - - -
17/06:00am 7.3 - 7.2 99 0.1 - - - - - - - -
17/05:30am 7.2 - 7.1 99 0.1 - - - - - - - -
17/05:00am 7.3 - 7.2 99 0.1 - - - - - - - -
17/04:30am 7.4 - 7.3 99 0.1 - - - - - - - -
17/04:00am 7.4 - 7.3 99 0.1 - - - - - - - -
17/03:30am 7.2 - 7.1 99 0.1 - - - - - - - -
17/03:00am 7.2 - 7.1 99 0.1 - - - - - - - 0.0
17/02:30am 7.2 - 7.1 99 0.1 - - - - - - - -
17/02:00am 6.9 - 6.8 99 0.1 - - - - - - - -
17/01:30am 6.9 - 6.2 95 0.4 - - - - - - - -
17/01:00am 7.4 - 6.2 92 0.6 - - - - - - - -
17/12:30am 7.5 - 5.8 89 0.8 - - - - - - - -
17/12:00am 7.6 - 4.6 81 1.5 - - - - - - - -
 
Date/Time
EDT
Temp
°C
App
Temp
°C
Dew
Point
°C
Rel
Hum
%
Delta-T
°C
Wind Press
QNH
hPa
Press
MSL
hPa
Rain since
9am
mm
Dir  Spd
km/h
Gust
km/h
Spd
kts
Gust
kts
16/11:30pm 7.7 - 5.0 83 1.3 - - - - - - - -
16/11:00pm 7.7 - 5.5 86 1.1 - - - - - - - -
16/10:30pm 7.1 - 4.8 85 1.1 - - - - - - - -
16/10:00pm 9.2 - 2.8 64 3.0 - - - - - - - -
16/09:30pm 8.5 - 6.3 86 1.1 - - - - - - - -
16/09:00pm 8.0 - 7.9 99 0.1 - - - - - - - 14.0
16/08:30pm 6.6 - 6.5 99 0.1 - - - - - - - -
16/08:00pm 7.3 - 7.2 99 0.1 - - - - - - - -
16/07:30pm 7.7 - 7.6 99 0.1 - - - - - - - -
16/07:00pm 7.1 - 7.0 99 0.1 - - - - - - - -
16/06:30pm 8.1 - 8.0 99 0.1 - - - - - - - -
16/06:00pm 8.0 - 7.9 99 0.1 - - - - - - - -
16/05:30pm 7.9 - 7.8 99 0.1 - - - - - - - -
16/05:00pm 7.8 - 7.7 99 0.1 - - - - - - - -
16/04:30pm 7.9 - 7.8 99 0.1 - - - - - - - -
16/04:00pm 8.3 - 8.2 99 0.1 - - - - - - - -
16/03:30pm 8.2 - 8.1 99 0.1 - - - - - - - -
16/03:00pm 8.4 - 8.3 99 0.1 - - - - - - - 6.0
16/02:30pm 8.1 - 8.0 99 0.1 - - - - - - - -
16/02:00pm 8.1 - 8.0 99 0.1 - - - - - - - -
16/01:30pm 7.9 - 7.8 99 0.1 - - - - - - - -
16/01:00pm 8.3 - 8.2 99 0.1 - - - - - - - -
16/12:30pm 8.2 - 8.1 99 0.1 - - - - - - - -
16/12:00pm 8.4 - 8.3 99 0.1 - - - - - - - -
16/11:30am 8.1 - 8.0 99 0.1 - - - - - - - -
16/11:00am 8.0 - 7.9 99 0.1 - - - - - - - -
16/10:30am 8.0 - 7.9 99 0.1 - - - - - - - -
16/10:00am 7.9 - 7.8 99 0.1 - - - - - - - -
16/09:30am 8.0 - 7.9 99 0.1 - - - - - - - -
16/09:00am 8.1 - 8.0 99 0.1 - - - - - - - 0.2
16/08:30am 9.1 - 7.2 88 1.0 - - - - - - - -

Other Formats:

Comma delimited format used in spreadsheet applications
http://www.bom.gov.au/fwo/IDV60801/IDV60801.94894.axf

JavaScript Object Notation format (JSON) in row-major order
http://www.bom.gov.au/fwo/IDV60801/IDV60801.94894.json